Time;durP1;ratioP1;P1;durP2;ratioP2;P2;SDS_P1;SDS_P2;PMS_P1;PMS_P2;Temp;Humidity;BMP_temperature;BMP_pressure;BME280_temperature;BME280_humidity;BME280_pressure;Samples;Min_cycle;Max_cycle;Signal;HPM_P1;HPM_P2
2021/01/03 00:01:47;;;;;;;22.80;9.70;;;4.70;99.90;;;;;;4987650;28;20027;-79
2021/01/03 00:04:14;;;;;;;30.60;11.23;;;4.60;99.90;;;;;;5005151;28;20141;-79
2021/01/03 00:06:39;;;;;;;25.52;9.85;;;4.70;99.90;;;;;;5004358;28;20043;-79
2021/01/03 00:09:06;;;;;;;25.38;12.02;;;4.60;99.90;;;;;;4987620;28;20037;-80
2021/01/03 00:11:32;;;;;;;26.63;11.38;;;4.70;99.90;;;;;;5005301;28;20062;-81
2021/01/03 00:13:58;;;;;;;25.20;11.00;;;4.70;99.90;;;;;;4987659;28;20030;-79
2021/01/03 00:16:23;;;;;;;28.58;11.27;;;4.70;99.90;;;;;;5004883;28;20069;-78
2021/01/03 00:18:49;;;;;;;24.08;10.05;;;4.70;99.90;;;;;;5004956;28;20026;-81
2021/01/03 00:21:14;;;;;;;33.97;9.73;;;4.80;99.90;;;;;;4987859;28;20029;-80
2021/01/03 00:23:40;;;;;;;21.25;8.48;;;4.80;99.90;;;;;;5004898;28;20026;-80
2021/01/03 00:26:07;;;;;;;29.73;10.18;;;4.80;99.90;;;;;;4990163;28;20076;-80
2021/01/03 00:28:32;;;;;;;20.77;9.45;;;4.90;99.90;;;;;;4991252;28;20515;-79
2021/01/03 00:30:58;;;;;;;21.45;9.93;;;4.80;99.90;;;;;;5008642;28;20030;-79
2021/01/03 00:33:24;;;;;;;25.52;10.60;;;4.80;99.90;;;;;;5008861;28;20057;-79
2021/01/03 00:35:50;;;;;;;21.00;9.95;;;4.80;99.90;;;;;;4991076;28;20031;-79
2021/01/03 00:38:16;;;;;;;29.85;9.80;;;4.80;99.90;;;;;;4991272;28;20023;-78
2021/01/03 00:40:42;;;;;;;30.13;10.50;;;4.80;99.90;;;;;;4991381;28;20040;-78
2021/01/03 00:43:09;;;;;;;27.90;10.70;;;4.80;99.90;;;;;;5008730;28;20030;-79
2021/01/03 00:45:35;;;;;;;22.05;10.50;;;4.80;99.90;;;;;;5008656;28;20041;-78
2021/01/03 00:48:02;;;;;;;17.98;8.68;;;4.80;99.90;;;;;;5008617;28;20030;-79
2021/01/03 00:50:28;;;;;;;25.30;10.48;;;4.80;99.90;;;;;;5008407;28;20033;-79
2021/01/03 00:52:54;;;;;;;26.98;11.13;;;4.90;99.90;;;;;;4990862;28;20109;-80
2021/01/03 00:55:19;;;;;;;20.48;10.07;;;4.80;99.90;;;;;;4991188;28;20080;-80
2021/01/03 00:57:45;;;;;;;27.05;11.10;;;4.80;99.90;;;;;;4990726;28;20034;-79
2021/01/03 01:00:22;;;;;;;20.65;9.80;;;4.90;99.90;;;;;;4991173;28;20034;-79
2021/01/03 01:02:47;;;;;;;23.63;10.20;;;4.80;99.90;;;;;;4990478;28;20482;-79
2021/01/03 01:05:14;;;;;;;19.50;8.73;;;4.80;99.90;;;;;;4990664;28;20053;-79
2021/01/03 01:07:40;;;;;;;24.80;9.90;;;4.90;99.90;;;;;;5008578;28;20067;-80
2021/01/03 01:10:08;;;;;;;23.08;10.35;;;4.80;99.90;;;;;;4990626;28;20058;-80
2021/01/03 01:12:34;;;;;;;18.48;9.10;;;4.80;99.90;;;;;;5007849;28;20022;-79
2021/01/03 01:15:13;;;;;;;22.95;9.05;;;4.90;99.90;;;;;;5008223;28;20036;-78
2021/01/03 01:17:39;;;;;;;21.67;10.05;;;4.90;99.90;;;;;;5008161;28;20468;-78
2021/01/03 01:20:07;;;;;;;21.70;9.88;;;4.80;99.90;;;;;;4990251;28;20045;-82
2021/01/03 01:22:32;;;;;;;25.17;9.30;;;4.80;99.90;;;;;;5007984;28;20029;-80
2021/01/03 01:24:58;;;;;;;24.85;9.15;;;4.90;99.90;;;;;;4990645;28;20038;-80
2021/01/03 01:27:23;;;;;;;28.45;9.77;;;5.00;99.90;;;;;;5007728;28;20069;-79
2021/01/03 01:29:49;;;;;;;17.90;8.05;;;4.80;99.90;;;;;;5007981;28;20029;-80
2021/01/03 01:32:15;;;;;;;22.08;10.32;;;4.80;99.90;;;;;;4990584;28;20034;-78
2021/01/03 01:34:40;;;;;;;25.13;10.63;;;4.80;99.90;;;;;;5007892;28;20090;-80
2021/01/03 01:37:06;;;;;;;27.33;10.88;;;4.90;99.90;;;;;;4989243;28;20039;-81
2021/01/03 01:39:31;;;;;;;25.00;10.38;;;4.80;99.90;;;;;;4990221;28;20078;-79
2021/01/03 01:41:57;;;;;;;22.52;9.80;;;4.80;99.90;;;;;;4989810;28;20417;-81
2021/01/03 01:44:23;;;;;;;31.88;11.05;;;4.80;99.90;;;;;;4990414;28;20030;-80
2021/01/03 01:47:37;;;;;;;28.10;11.27;;;4.80;99.90;;;;;;4989725;28;20053;-80
2021/01/03 01:50:07;;;;;;;15.57;9.10;;;4.70;99.90;;;;;;4986790;28;20042;-80
2021/01/03 01:52:40;;;;;;;22.55;10.32;;;4.80;99.90;;;;;;4990203;28;20053;-79
2021/01/03 01:55:14;;;;;;;27.63;10.48;;;4.70;99.90;;;;;;5007405;28;20057;-80
2021/01/03 01:58:13;;;;;;;25.50;8.50;;;4.80;99.90;;;;;;4989976;28;20074;-79
2021/01/03 02:00:43;;;;;;;28.50;9.57;;;4.80;99.90;;;;;;4989826;28;20030;-79
2021/01/03 02:03:14;;;;;;;19.33;10.52;;;4.80;99.90;;;;;;4989177;28;20077;-80
2021/01/03 02:05:51;;;;;;;23.95;9.73;;;4.80;99.90;;;;;;5007637;28;20081;-78
2021/01/03 02:08:31;;;;;;;19.58;10.25;;;4.80;99.90;;;;;;5007251;28;20039;-80
2021/01/03 02:10:59;;;;;;;22.95;9.23;;;4.80;99.90;;;;;;5007196;28;20033;-78
2021/01/03 02:13:39;;;;;;;25.30;10.00;;;4.70;99.90;;;;;;5007091;28;20030;-79
2021/01/03 02:16:11;;;;;;;21.00;9.18;;;4.80;99.90;;;;;;5007043;28;20042;-79
2021/01/03 02:18:37;;;;;;;25.70;9.98;;;4.80;99.90;;;;;;4989201;28;20250;-79
2021/01/03 02:21:24;;;;;;;25.73;9.90;;;4.70;99.90;;;;;;4989489;28;20060;-80
2021/01/03 02:24:15;;;;;;;30.90;10.32;;;4.70;99.90;;;;;;5009750;28;20035;-79
2021/01/03 02:26:46;;;;;;;24.50;9.25;;;4.70;99.90;;;;;;5007324;28;20034;-79
2021/01/03 02:29:15;;;;;;;22.27;10.88;;;4.70;99.90;;;;;;4988928;28;20030;-80
2021/01/03 02:31:45;;;;;;;24.42;9.50;;;4.70;99.90;;;;;;5005607;28;20097;-79
2021/01/03 02:34:20;;;;;;;28.30;9.05;;;4.70;99.90;;;;;;4989170;28;20033;-78
2021/01/03 02:36:56;;;;;;;26.35;10.13;;;4.60;99.90;;;;;;4988784;28;20049;-80
2021/01/03 02:39:40;;;;;;;22.08;8.82;;;4.70;99.90;;;;;;4989116;28;20098;-79
2021/01/03 02:42:19;;;;;;;23.40;8.75;;;4.60;99.90;;;;;;5006397;28;20602;-79
2021/01/03 02:44:45;;;;;;;21.75;9.57;;;4.70;99.90;;;;;;5006957;28;20034;-79
2021/01/03 02:47:12;;;;;;;20.65;9.70;;;4.60;99.90;;;;;;4989203;28;20037;-77
2021/01/03 02:49:38;;;;;;;24.55;10.05;;;4.60;99.90;;;;;;5005803;28;20041;-79
2021/01/03 02:52:10;;;;;;;20.08;9.52;;;4.50;99.90;;;;;;5005092;28;20034;-78
2021/01/03 02:54:36;;;;;;;24.02;9.15;;;4.50;99.90;;;;;;4988796;28;20046;-79
2021/01/03 02:57:01;;;;;;;18.48;8.05;;;4.50;99.90;;;;;;4988462;28;20042;-79
2021/01/03 02:59:27;;;;;;;17.60;8.10;;;4.50;99.90;;;;;;4988800;28;20030;-79
2021/01/03 03:01:53;;;;;;;18.20;8.75;;;4.40;99.90;;;;;;4988545;28;20044;-80
2021/01/03 03:04:19;;;;;;;22.02;10.07;;;4.40;99.90;;;;;;5005561;28;20129;-78
2021/01/03 03:06:44;;;;;;;23.77;9.38;;;4.40;99.90;;;;;;5006282;28;20029;-80
2021/01/03 03:09:10;;;;;;;20.80;9.65;;;4.30;99.90;;;;;;5006255;28;20033;-80
2021/01/03 03:11:36;;;;;;;22.80;9.35;;;4.40;99.90;;;;;;4988335;28;20057;-79
2021/01/03 03:14:02;;;;;;;21.15;8.23;;;4.30;99.90;;;;;;4988321;28;20109;-79
2021/01/03 03:16:27;;;;;;;20.73;7.82;;;4.30;99.90;;;;;;5006013;28;20038;-79
2021/01/03 03:18:53;;;;;;;23.33;9.18;;;4.40;99.90;;;;;;5005312;28;20066;-79
2021/01/03 03:21:20;;;;;;;23.70;10.05;;;4.30;99.90;;;;;;5005973;28;20034;-79
2021/01/03 03:23:46;;;;;;;28.70;9.00;;;4.30;99.90;;;;;;5005989;28;20030;-79
2021/01/03 03:26:11;;;;;;;23.13;9.52;;;4.30;99.90;;;;;;4988117;28;20069;-79
2021/01/03 03:28:37;;;;;;;24.30;9.95;;;4.40;99.90;;;;;;5005805;28;20086;-80
2021/01/03 03:31:03;;;;;;;18.85;8.40;;;4.30;99.90;;;;;;5005583;28;20030;-79
2021/01/03 03:33:28;;;;;;;30.23;10.85;;;4.30;99.90;;;;;;5005384;28;20029;-80
2021/01/03 03:35:54;;;;;;;18.52;6.85;;;4.30;99.90;;;;;;4988322;28;20394;-79
2021/01/03 03:38:20;;;;;;;20.15;9.48;;;4.30;99.90;;;;;;4988184;28;20022;-78
2021/01/03 03:40:47;;;;;;;21.98;7.63;;;4.30;99.90;;;;;;4988042;28;20042;-79
2021/01/03 03:43:13;;;;;;;18.38;8.48;;;4.30;99.90;;;;;;4988436;28;20030;-79
2021/01/03 03:45:38;;;;;;;23.15;9.35;;;4.20;99.90;;;;;;5005443;28;20980;-79
2021/01/03 03:48:05;;;;;;;30.73;9.20;;;4.20;99.90;;;;;;5005303;28;20685;-79
2021/01/03 03:50:30;;;;;;;18.40;7.35;;;4.20;99.90;;;;;;5005522;28;20030;-79
2021/01/03 03:52:56;;;;;;;21.85;8.50;;;4.30;99.90;;;;;;4987479;28;20029;-79
2021/01/03 03:55:21;;;;;;;25.00;10.80;;;4.30;99.90;;;;;;5005566;28;20031;-79
2021/01/03 03:57:47;;;;;;;22.77;8.68;;;4.30;99.90;;;;;;4987984;28;20065;-79
2021/01/03 04:00:16;;;;;;;16.38;7.32;;;4.30;99.90;;;;;;5006356;28;20030;-79
2021/01/03 04:02:46;;;;;;;24.90;9.50;;;4.20;99.90;;;;;;4991773;28;20062;-80
2021/01/03 04:05:16;;;;;;;22.80;7.75;;;4.20;99.90;;;;;;4992027;28;20030;-79
2021/01/03 04:07:42;;;;;;;25.13;9.75;;;4.20;99.90;;;;;;5009107;28;20046;-80
2021/01/03 04:10:08;;;;;;;23.13;9.32;;;4.20;99.90;;;;;;4991767;28;20033;-79
2021/01/03 04:12:34;;;;;;;23.33;8.68;;;4.20;99.90;;;;;;4992046;28;20030;-79
2021/01/03 04:15:02;;;;;;;21.90;7.80;;;4.20;99.90;;;;;;4991184;28;20026;-79
2021/01/03 04:17:28;;;;;;;30.00;9.25;;;4.20;99.90;;;;;;4991616;28;20038;-78
2021/01/03 04:19:54;;;;;;;19.38;8.38;;;4.20;99.90;;;;;;5009300;28;20050;-77
2021/01/03 04:22:19;;;;;;;24.70;8.80;;;4.10;99.90;;;;;;4991144;28;20036;-78
2021/01/03 04:24:45;;;;;;;17.60;8.95;;;4.10;99.90;;;;;;5009245;28;20054;-78
2021/01/03 04:27:10;;;;;;;21.65;8.25;;;4.20;99.90;;;;;;4991765;28;20027;-78
2021/01/03 04:29:36;;;;;;;20.13;8.20;;;4.10;99.90;;;;;;4991179;28;20117;-79
2021/01/03 04:32:09;;;;;;;21.55;8.95;;;4.10;99.90;;;;;;5009034;28;20038;-80
2021/01/03 04:34:36;;;;;;;18.52;8.45;;;4.00;99.90;;;;;;4991271;28;20034;-79
2021/01/03 04:37:02;;;;;;;22.42;9.10;;;4.00;99.90;;;;;;5008722;28;20049;-79
2021/01/03 04:39:29;;;;;;;19.98;8.75;;;4.00;99.90;;;;;;4991287;28;20027;-79
2021/01/03 04:42:01;;;;;;;23.20;9.57;;;4.00;99.90;;;;;;5008437;28;20037;-80
2021/01/03 04:44:39;;;;;;;27.30;9.80;;;4.00;99.90;;;;;;5008580;28;20034;-79
2021/01/03 04:47:14;;;;;;;25.35;8.82;;;3.90;99.90;;;;;;5008880;28;20088;-79
2021/01/03 04:49:45;;;;;;;26.25;9.23;;;3.90;99.90;;;;;;4990786;28;20045;-79
2021/01/03 04:52:32;;;;;;;21.33;8.55;;;3.90;99.90;;;;;;4991364;28;20028;-79
2021/01/03 04:55:14;;;;;;;19.65;8.63;;;3.90;99.90;;;;;;5008400;28;20053;-79
2021/01/03 04:57:58;;;;;;;18.50;7.63;;;3.90;99.90;;;;;;5008368;28;20449;-79
2021/01/03 05:00:32;;;;;;;23.55;9.18;;;3.90;99.90;;;;;;4991025;28;20076;-79
2021/01/03 05:03:34;;;;;;;25.95;9.43;;;3.90;99.90;;;;;;4989913;28;20054;-79
2021/01/03 05:06:06;;;;;;;27.75;8.85;;;3.90;99.90;;;;;;5008345;28;20062;-79
2021/01/03 05:08:41;;;;;;;21.73;8.80;;;3.80;99.90;;;;;;5008422;28;20404;-79
2021/01/03 05:11:12;;;;;;;27.45;9.13;;;3.80;99.90;;;;;;4990021;28;20053;-78
2021/01/03 05:13:48;;;;;;;21.38;9.80;;;3.80;99.90;;;;;;5008487;28;20050;-80
2021/01/03 05:16:16;;;;;;;25.40;10.05;;;3.80;99.90;;;;;;4990884;28;20133;-79
2021/01/03 05:18:42;;;;;;;18.85;7.68;;;3.80;99.90;;;;;;4989908;28;20034;-79
2021/01/03 05:21:07;;;;;;;25.33;9.93;;;3.80;99.90;;;;;;5008181;28;20030;-78
2021/01/03 05:23:39;;;;;;;21.02;9.13;;;3.90;99.90;;;;;;4990198;28;20133;-80
2021/01/03 05:26:08;;;;;;;20.45;8.85;;;3.80;99.90;;;;;;5007819;28;20109;-80
2021/01/03 05:28:36;;;;;;;32.78;10.23;;;3.80;99.90;;;;;;4990307;28;20057;-79
2021/01/03 05:31:24;;;;;;;25.50;9.05;;;3.80;99.90;;;;;;4990037;28;20022;-80
2021/01/03 05:34:05;;;;;;;25.00;8.70;;;3.80;99.90;;;;;;5007838;28;20519;-81
2021/01/03 05:36:51;;;;;;;33.30;9.88;;;3.80;99.90;;;;;;4990356;28;20049;-79
2021/01/03 05:39:17;;;;;;;20.00;8.75;;;3.70;99.90;;;;;;4990365;28;20037;-81
2021/01/03 05:41:42;;;;;;;23.05;10.05;;;3.70;99.90;;;;;;5007923;28;20038;-80
2021/01/03 05:44:15;;;;;;;26.25;10.13;;;3.70;99.90;;;;;;4989901;28;20026;-79
2021/01/03 05:46:47;;;;;;;27.80;9.73;;;3.70;99.90;;;;;;4990180;28;20121;-80
2021/01/03 05:49:22;;;;;;;21.75;8.43;;;3.60;99.90;;;;;;5007588;28;20030;-79
2021/01/03 05:52:10;;;;;;;32.78;11.00;;;3.50;99.90;;;;;;5007140;28;20142;-80
2021/01/03 05:54:38;;;;;;;22.42;9.07;;;3.50;99.90;;;;;;5007479;28;20034;-80
2021/01/03 05:57:18;;;;;;;35.22;9.35;;;3.40;99.90;;;;;;5007165;28;20560;-80
2021/01/03 05:59:45;;;;;;;30.13;10.80;;;3.30;99.90;;;;;;4989724;28;20026;-79
2021/01/03 06:02:30;;;;;;;26.73;9.70;;;3.30;99.90;;;;;;5007264;28;20065;-80
2021/01/03 06:05:16;;;;;;;33.38;11.20;;;3.20;99.90;;;;;;4989523;28;20031;-80
2021/01/03 06:08:07;;;;;;;22.52;10.15;;;3.20;99.90;;;;;;4989925;28;20031;-81
2021/01/03 06:10:36;;;;;;;29.33;11.05;;;3.10;99.90;;;;;;5007180;28;20027;-81
2021/01/03 06:13:03;;;;;;;27.42;10.23;;;3.10;99.90;;;;;;4989592;28;20027;-79
2021/01/03 06:15:54;;;;;;;33.28;11.88;;;3.00;99.90;;;;;;5006732;28;20030;-80
2021/01/03 06:18:38;;;;;;;27.45;10.50;;;3.00;99.90;;;;;;4989201;28;20061;-79
2021/01/03 06:21:04;;;;;;;28.63;9.43;;;3.00;99.90;;;;;;5006771;28;20508;-78
2021/01/03 06:23:34;;;;;;;25.13;9.18;;;3.00;99.90;;;;;;4988725;28;20027;-80
2021/01/03 06:26:18;;;;;;;26.38;10.05;;;2.90;99.90;;;;;;4989909;28;20023;-80
2021/01/03 06:28:50;;;;;;;26.90;10.82;;;2.90;99.90;;;;;;4989645;28;20034;-81
2021/01/03 06:31:44;;;;;;;35.58;10.75;;;2.90;99.90;;;;;;4989533;28;20106;-81
2021/01/03 06:34:27;;;;;;;22.08;8.93;;;3.00;99.90;;;;;;5006485;28;20062;-80
2021/01/03 06:37:05;;;;;;;23.15;10.10;;;2.90;99.90;;;;;;5006581;28;20061;-79
2021/01/03 06:39:38;;;;;;;24.75;9.55;;;3.00;99.90;;;;;;4988894;28;20445;-80
2021/01/03 06:42:27;;;;;;;24.73;9.70;;;3.00;99.90;;;;;;4988991;28;20030;-80
2021/01/03 06:45:20;;;;;;;24.50;8.25;;;3.00;99.90;;;;;;5006182;28;20403;-82
2021/01/03 06:48:17;;;;;;;25.52;10.45;;;3.00;99.90;;;;;;5006136;28;20034;-78
2021/01/03 06:51:03;;;;;;;24.90;9.40;;;3.10;99.90;;;;;;5006730;28;20109;-79
2021/01/03 06:54:06;;;;;;;19.50;8.70;;;3.10;99.90;;;;;;5006145;28;20034;-80
2021/01/03 06:56:50;;;;;;;22.83;9.95;;;3.10;99.90;;;;;;5006288;28;20057;-79
2021/01/03 06:59:42;;;;;;;24.90;10.20;;;3.10;99.90;;;;;;4989028;28;20042;-78
2021/01/03 07:02:08;;;;;;;23.45;8.73;;;3.10;99.90;;;;;;5006002;28;20289;-80
2021/01/03 07:04:39;;;;;;;19.80;9.10;;;3.10;99.90;;;;;;4988569;28;20034;-79
2021/01/03 07:07:20;;;;;;;25.23;9.10;;;3.10;99.90;;;;;;4988470;28;20541;-80
2021/01/03 07:10:17;;;;;;;24.48;8.93;;;3.10;99.90;;;;;;4988368;28;20030;-81
2021/01/03 07:12:46;;;;;;;17.17;7.60;;;3.10;99.90;;;;;;5006419;28;20038;-81
2021/01/03 07:15:14;;;;;;;21.67;8.70;;;3.10;99.90;;;;;;4988764;28;20030;-79
2021/01/03 07:17:55;;;;;;;29.00;9.75;;;3.10;99.90;;;;;;4988300;28;20038;-78
2021/01/03 07:20:52;;;;;;;21.17;7.35;;;3.10;99.90;;;;;;4988190;28;20030;-78
2021/01/03 07:23:29;;;;;;;23.17;9.50;;;3.10;99.90;;;;;;4987184;28;20052;-80
2021/01/03 07:26:18;;;;;;;18.52;8.60;;;3.20;99.90;;;;;;5006176;28;20026;-79
2021/01/03 07:28:59;;;;;;;21.75;9.18;;;3.20;99.90;;;;;;4988218;28;20022;-79
2021/01/03 07:31:49;;;;;;;29.55;8.35;;;3.20;99.90;;;;;;4988297;28;20389;-78
2021/01/03 07:34:30;;;;;;;14.82;7.88;;;3.30;99.90;;;;;;5004963;28;20022;-80
2021/01/03 07:36:58;;;;;;;13.48;6.53;;;3.30;99.90;;;;;;5005199;28;20068;-79
2021/01/03 07:39:30;;;;;;;19.33;7.95;;;3.30;99.90;;;;;;4988120;28;20050;-80
2021/01/03 07:42:12;;;;;;;25.50;8.95;;;3.30;99.90;;;;;;5005501;28;20034;-80
2021/01/03 07:44:38;;;;;;;20.55;8.30;;;3.40;99.90;;;;;;5005539;28;20041;-79
2021/01/03 07:47:04;;;;;;;20.80;8.68;;;3.30;99.90;;;;;;4988061;28;20034;-78
2021/01/03 07:49:40;;;;;;;15.52;7.63;;;3.30;99.90;;;;;;5005122;28;20019;-78
2021/01/03 07:52:17;;;;;;;25.75;9.75;;;3.40;99.90;;;;;;5003383;28;20049;-79
2021/01/03 07:54:51;;;;;;;18.13;7.30;;;3.40;99.90;;;;;;4999338;28;20436;-79
2021/01/03 07:57:19;;;;;;;20.20;8.98;;;3.40;99.90;;;;;;4977905;28;20072;-79
2021/01/03 07:59:51;;;;;;;18.55;7.18;;;3.40;99.90;;;;;;4993386;28;20023;-80
2021/01/03 08:02:21;;;;;;;18.42;8.02;;;3.40;99.90;;;;;;4987523;28;20062;-79
2021/01/03 08:04:52;;;;;;;20.20;6.95;;;3.40;99.90;;;;;;4987415;28;20031;-78
2021/01/03 08:07:18;;;;;;;16.60;7.40;;;3.40;99.90;;;;;;4988029;28;20049;-78
2021/01/03 08:09:44;;;;;;;26.48;7.72;;;3.40;99.90;;;;;;5005301;28;20031;-78
2021/01/03 08:12:13;;;;;;;18.98;8.40;;;3.50;99.90;;;;;;5005103;28;20093;-80
2021/01/03 08:14:42;;;;;;;19.30;6.90;;;3.50;99.90;;;;;;5005490;28;20465;-81
2021/01/03 08:17:11;;;;;;;12.93;6.72;;;3.50;99.90;;;;;;5005322;28;20038;-80
2021/01/03 08:19:37;;;;;;;22.85;7.10;;;3.50;99.90;;;;;;4987409;28;20041;-79
2021/01/03 08:22:03;;;;;;;24.05;7.82;;;3.60;99.90;;;;;;5005582;28;20050;-79
2021/01/03 08:24:29;;;;;;;18.55;8.13;;;3.60;99.90;;;;;;5005145;28;20062;-78
2021/01/03 08:27:11;;;;;;;17.70;7.43;;;3.50;99.90;;;;;;4987291;28;20113;-79
2021/01/03 08:29:43;;;;;;;16.05;6.53;;;3.50;99.90;;;;;;4987750;28;20037;-80
2021/01/03 08:32:30;;;;;;;20.10;7.68;;;3.50;99.90;;;;;;4987308;28;20042;-80
2021/01/03 08:35:03;;;;;;;26.90;8.82;;;3.50;99.90;;;;;;4987772;28;20389;-79
2021/01/03 08:37:39;;;;;;;9.68;5.28;;;3.50;99.90;;;;;;5005281;28;20045;-80
2021/01/03 08:40:34;;;;;;;16.77;6.75;;;3.50;99.90;;;;;;5005090;28;20042;-81
2021/01/03 08:43:17;;;;;;;17.88;6.82;;;3.60;99.90;;;;;;4987399;28;20034;-78
2021/01/03 08:45:44;;;;;;;12.43;5.88;;;3.70;99.90;;;;;;4987126;28;20114;-79
2021/01/03 08:48:12;;;;;;;16.98;5.93;;;3.70;99.90;;;;;;5010513;28;20493;-79
2021/01/03 08:50:40;;;;;;;14.98;6.15;;;3.70;99.90;;;;;;4990553;28;20057;-78
2021/01/03 08:53:24;;;;;;;18.67;5.95;;;3.70;99.90;;;;;;4990675;28;20057;-78
2021/01/03 08:55:50;;;;;;;13.63;5.37;;;3.80;99.90;;;;;;4990180;28;20026;-79
2021/01/03 08:58:19;;;;;;;21.15;6.97;;;3.80;99.90;;;;;;4990583;28;20069;-79
2021/01/03 09:00:49;;;;;;;12.48;6.57;;;3.80;99.90;;;;;;5007958;28;20030;-79
2021/01/03 09:03:20;;;;;;;12.95;5.78;;;3.80;99.90;;;;;;4989224;28;20605;-80
2021/01/03 09:05:48;;;;;;;13.38;6.25;;;3.80;99.90;;;;;;4990616;28;20045;-79
2021/01/03 09:08:28;;;;;;;12.35;5.47;;;3.80;99.90;;;;;;4990128;28;20026;-80
2021/01/03 09:11:20;;;;;;;18.75;5.45;;;3.80;99.90;;;;;;4979884;28;20031;-78
2021/01/03 09:13:56;;;;;;;10.55;5.03;;;3.90;99.90;;;;;;4983344;28;20047;-80
2021/01/03 09:16:49;;;;;;;15.90;4.82;;;3.90;99.90;;;;;;4985982;28;20513;-80
2021/01/03 09:19:24;;;;;;;8.55;4.68;;;3.90;99.90;;;;;;4969928;28;20028;-81
2021/01/03 09:21:54;;;;;;;12.50;4.13;;;3.90;99.90;;;;;;4969610;28;20023;-81
2021/01/03 09:24:23;;;;;;;10.20;4.68;;;3.90;99.90;;;;;;4987854;28;20023;-79
2021/01/03 09:26:49;;;;;;;8.10;4.30;;;3.90;99.90;;;;;;4970104;28;20058;-78
2021/01/03 09:29:21;;;;;;;12.95;4.78;;;3.80;99.90;;;;;;4970096;28;20026;-80
2021/01/03 09:32:02;;;;;;;14.43;4.68;;;3.90;99.90;;;;;;4987612;28;20038;-79
2021/01/03 09:35:12;;;;;;;14.38;6.03;;;3.90;99.90;;;;;;4970143;28;20031;-82
2021/01/03 09:37:40;;;;;;;12.60;4.85;;;3.90;99.90;;;;;;4961730;28;20074;-79
2021/01/03 09:40:26;;;;;;;9.38;4.28;;;3.90;99.90;;;;;;4969889;28;20031;-79
2021/01/03 09:43:17;;;;;;;9.52;4.50;;;3.90;99.90;;;;;;4969816;28;20115;-79
2021/01/03 09:46:01;;;;;;;8.40;3.88;;;3.90;99.90;;;;;;4970480;28;20085;-80
2021/01/03 09:48:33;;;;;;;8.10;4.03;;;4.00;99.90;;;;;;4970087;28;20050;-78
2021/01/03 09:51:14;;;;;;;8.50;3.92;;;4.00;99.90;;;;;;4987342;28;20065;-78
2021/01/03 09:53:42;;;;;;;7.47;3.42;;;4.10;99.90;;;;;;4970371;28;20459;-80
2021/01/03 09:56:07;;;;;;;16.13;3.42;;;4.10;99.90;;;;;;4970178;28;20030;-78
2021/01/03 09:58:42;;;;;;;6.65;3.20;;;4.10;99.90;;;;;;4986163;28;20057;-79
2021/01/03 10:01:20;;;;;;;;;;;4.20;99.90;;;;;;4987866;28;20026;-78
2021/01/03 10:03:46;;;;;;;12.57;4.03;;;4.20;99.90;;;;;;4969357;28;19969;-78
2021/01/03 10:06:18;;;;;;;7.53;3.40;;;4.20;99.90;;;;;;4969613;28;20030;-78
2021/01/03 10:08:44;;;;;;;12.75;4.50;;;4.20;99.90;;;;;;4987594;28;20041;-80
2021/01/03 10:11:10;;;;;;;15.85;4.45;;;4.20;99.90;;;;;;4987356;28;20038;-79
2021/01/03 10:13:36;;;;;;;5.53;2.78;;;4.20;99.90;;;;;;4986890;28;20050;-80
2021/01/03 10:16:24;;;;;;;57.38;9.60;;;4.20;99.90;;;;;;4969651;28;20031;-79
2021/01/03 10:18:50;;;;;;;21.75;6.85;;;4.20;99.90;;;;;;4986766;28;20044;-78
2021/01/03 10:21:38;;;;;;;9.50;3.28;;;4.30;99.90;;;;;;4986956;28;20023;-79
2021/01/03 10:24:24;;;;;;;11.35;4.03;;;4.30;99.90;;;;;;4969500;28;20073;-78
2021/01/03 10:27:05;;;;;;;9.75;3.75;;;4.40;99.90;;;;;;4968985;28;20023;-79
2021/01/03 10:29:32;;;;;;;7.55;3.83;;;4.40;99.90;;;;;;4969148;28;20035;-79
2021/01/03 10:31:58;;;;;;;4.57;2.65;;;4.30;99.90;;;;;;4969125;28;20023;-79
2021/01/03 10:34:24;;;;;;;15.95;5.00;;;4.30;99.90;;;;;;4985363;28;20038;-79
2021/01/03 10:36:54;;;;;;;9.65;3.55;;;4.40;99.90;;;;;;4986809;28;20034;-80
2021/01/03 10:39:20;;;;;;;6.32;2.55;;;4.40;99.90;;;;;;4986694;28;20078;-79
2021/01/03 10:41:49;;;;;;;7.60;3.53;;;4.40;99.90;;;;;;4968933;28;20027;-79
2021/01/03 10:44:16;;;;;;;11.55;5.20;;;4.40;99.90;;;;;;4969616;28;20031;-81
2021/01/03 10:46:41;;;;;;;6.57;3.92;;;4.40;99.90;;;;;;4969076;28;20054;-80
2021/01/03 10:49:08;;;;;;;10.32;3.53;;;4.40;99.90;;;;;;4968818;28;20027;-79
2021/01/03 10:51:37;;;;;;;7.57;3.15;;;4.40;99.90;;;;;;4986412;28;20089;-78
2021/01/03 10:54:05;;;;;;;6.63;3.15;;;4.50;99.90;;;;;;4985788;28;20027;-80
2021/01/03 10:56:31;;;;;;;7.93;3.83;;;4.40;99.90;;;;;;4965682;28;20050;-78
2021/01/03 10:58:57;;;;;;;6.63;2.13;;;4.40;99.90;;;;;;4967810;28;20047;-79
2021/01/03 11:01:23;;;;;;;4.93;2.88;;;4.50;99.90;;;;;;4967722;28;20026;-77
2021/01/03 11:03:50;;;;;;;5.90;2.78;;;4.50;99.90;;;;;;4997787;28;20185;-79
2021/01/03 11:06:16;;;;;;;16.50;2.53;;;4.50;99.90;;;;;;4987230;28;20084;-80
2021/01/03 11:08:42;;;;;;;6.13;3.20;;;4.60;99.90;;;;;;5004772;28;20107;-80
2021/01/03 11:11:08;;;;;;;3.38;2.10;;;4.60;99.90;;;;;;5004800;28;20459;-80
2021/01/03 11:13:34;;;;;;;3.63;2.38;;;4.70;99.90;;;;;;4987632;28;20038;-78
2021/01/03 11:16:00;;;;;;;5.15;2.10;;;4.90;99.90;;;;;;5004525;28;20071;-80
2021/01/03 11:18:26;;;;;;;5.63;2.15;;;5.10;99.90;;;;;;5004791;28;20030;-76
2021/01/03 11:20:52;;;;;;;4.47;2.15;;;5.60;99.90;;;;;;4986464;28;20027;-79
2021/01/03 11:23:18;;;;;;;4.85;1.83;;;5.60;99.90;;;;;;4986301;28;20053;-78
2021/01/03 11:25:48;;;;;;;5.22;2.70;;;5.70;99.90;;;;;;4986994;28;20460;-79
2021/01/03 11:28:14;;;;;;;4.43;2.25;;;5.90;99.90;;;;;;4987063;28;20026;-77
2021/01/03 11:30:40;;;;;;;5.70;2.63;;;5.90;99.90;;;;;;5003009;28;20081;-79
2021/01/03 11:33:07;;;;;;;2.65;1.60;;;6.00;99.90;;;;;;4986332;28;20034;-79
2021/01/03 11:35:32;;;;;;;4.55;2.10;;;6.10;99.90;;;;;;4986174;28;20086;-79
2021/01/03 11:37:58;;;;;;;3.20;1.65;;;6.20;99.90;;;;;;4986053;28;20129;-78
2021/01/03 11:40:23;;;;;;;4.45;2.00;;;6.40;99.90;;;;;;5004102;28;20037;-77
2021/01/03 11:42:49;;;;;;;2.17;1.55;;;6.60;99.90;;;;;;4986257;28;20058;-78
2021/01/03 11:45:18;;;;;;;2.25;1.55;;;6.40;99.90;;;;;;5003399;28;20030;-79
2021/01/03 11:47:45;;;;;;;3.45;2.47;;;6.30;99.90;;;;;;4985478;28;20022;-80
2021/01/03 11:50:13;;;;;;;3.72;1.98;;;6.00;99.90;;;;;;5003892;28;20034;-78
2021/01/03 11:52:40;;;;;;;3.38;1.92;;;5.90;99.90;;;;;;4986361;28;20507;-79
2021/01/03 11:55:08;;;;;;;2.88;1.75;;;5.70;99.90;;;;;;5003943;28;20039;-78
2021/01/03 11:57:33;;;;;;;2.70;1.35;;;5.50;99.90;;;;;;5003426;28;20038;-77
2021/01/03 11:59:59;;;;;;;4.90;2.42;;;5.40;99.90;;;;;;4986202;28;20026;-80
2021/01/03 12:02:27;;;;;;;5.38;2.80;;;5.30;99.90;;;;;;4985375;28;20051;-79
2021/01/03 12:04:53;;;;;;;5.75;3.17;;;5.20;99.90;;;;;;4985863;28;20058;-78
2021/01/03 12:07:20;;;;;;;4.68;2.13;;;5.00;99.90;;;;;;4986106;28;20053;-78
2021/01/03 12:09:47;;;;;;;5.65;2.28;;;5.00;99.90;;;;;;4985950;28;20026;-78
2021/01/03 12:12:14;;;;;;;4.50;2.67;;;4.90;99.90;;;;;;4986046;28;20026;-78
2021/01/03 12:14:40;;;;;;;4.80;2.33;;;4.90;99.90;;;;;;4986481;28;20026;-77
2021/01/03 12:17:09;;;;;;;5.55;2.33;;;4.80;99.90;;;;;;4985772;28;20058;-76
2021/01/03 12:19:35;;;;;;;4.63;2.78;;;4.80;99.90;;;;;;5003564;28;20110;-78
2021/01/03 12:22:03;;;;;;;3.85;2.33;;;4.60;99.90;;;;;;5005902;28;20455;-79
2021/01/03 12:24:29;;;;;;;11.77;2.70;;;4.70;99.90;;;;;;4989622;28;20050;-77
2021/01/03 12:26:56;;;;;;;4.80;1.55;;;4.60;99.90;;;;;;5007956;28;20042;-78
2021/01/03 12:29:23;;;;;;;3.53;2.22;;;4.60;99.90;;;;;;4991079;28;20045;-79
2021/01/03 12:31:54;;;;;;;8.48;2.13;;;4.70;99.90;;;;;;4990689;28;20037;-78
2021/01/03 12:34:21;;;;;;;2.92;1.90;;;4.70;99.90;;;;;;5008533;28;20027;-80
2021/01/03 12:36:47;;;;;;;4.22;2.47;;;4.60;99.90;;;;;;5008183;28;20042;-78
2021/01/03 12:39:15;;;;;;;4.22;2.05;;;4.70;99.90;;;;;;5008331;28;20030;-78
2021/01/03 12:41:40;;;;;;;3.90;2.30;;;4.60;99.90;;;;;;4990949;28;20058;-77
2021/01/03 12:44:07;;;;;;;3.75;2.08;;;4.60;99.90;;;;;;5007918;28;20026;-79
2021/01/03 12:46:36;;;;;;;3.03;1.90;;;4.60;99.90;;;;;;5008302;28;20030;-78
2021/01/03 12:49:03;;;;;;;6.10;2.35;;;4.60;99.90;;;;;;4990677;28;20094;-77
2021/01/03 12:51:29;;;;;;;4.45;1.73;;;4.60;99.90;;;;;;4990362;28;20027;-79
2021/01/03 12:53:55;;;;;;;6.80;2.47;;;4.60;99.90;;;;;;5008217;28;20041;-79
2021/01/03 12:56:22;;;;;;;3.25;1.58;;;4.60;99.90;;;;;;4990501;28;20049;-78
2021/01/03 12:58:52;;;;;;;7.13;1.92;;;4.60;99.90;;;;;;4990090;28;20052;-82
2021/01/03 13:01:24;;;;;;;1.80;1.33;;;4.60;99.90;;;;;;4990527;28;20081;-79
2021/01/03 13:03:50;;;;;;;2.65;1.90;;;4.60;99.90;;;;;;5007757;28;20050;-79
2021/01/03 13:06:16;;;;;;;4.13;2.33;;;4.60;99.90;;;;;;4989992;28;20060;-80
2021/01/03 13:08:41;;;;;;;6.00;1.60;;;4.60;99.90;;;;;;4990475;28;20026;-81
2021/01/03 13:11:07;;;;;;;2.97;1.88;;;4.60;99.90;;;;;;5007721;28;20026;-78